createdAt,value
2022-09-20T00:00:43.874Z,1.77
2022-09-20T00:02:45.516Z,1.73
2022-09-20T00:04:49.604Z,1.15
2022-09-20T00:06:51.411Z,1.20
2022-09-20T00:08:53.590Z,1.38
2022-09-20T00:11:02.699Z,1.52
2022-09-20T00:13:07.957Z,1.27
2022-09-20T00:15:09.749Z,1.75
2022-09-20T00:17:11.334Z,1.80
2022-09-20T00:19:18.823Z,1.48
2022-09-20T00:21:23.039Z,1.63
2022-09-20T00:23:24.646Z,1.67
2022-09-20T00:25:26.394Z,1.58
2022-09-20T00:27:28.208Z,1.90
2022-09-20T00:29:29.851Z,1.60
2022-09-20T00:31:31.621Z,2.20
2022-09-20T00:33:51.841Z,1.27
2022-09-20T00:35:53.464Z,1.40
2022-09-20T00:37:55.704Z,2.03
2022-09-20T00:39:57.472Z,1.70
2022-09-20T00:41:59.151Z,1.75
2022-09-20T00:44:01.314Z,1.90
2022-09-20T00:46:03.450Z,1.85
2022-09-20T00:48:25.258Z,1.50
2022-09-20T00:50:33.482Z,2.22
2022-09-20T00:52:36.827Z,2.30
2022-09-20T00:54:38.682Z,1.42
2022-09-20T00:56:41.603Z,2.10
2022-09-20T00:58:47.458Z,2.13
2022-09-20T01:00:49.713Z,1.63
2022-09-20T01:02:54.959Z,1.88
2022-09-20T01:04:57.738Z,1.88
2022-09-20T01:07:01.587Z,1.88
2022-09-20T01:09:04.979Z,1.90
2022-09-20T01:11:06.612Z,1.83
2022-09-20T01:13:08.445Z,1.60
2022-09-20T01:15:10.748Z,1.88
2022-09-20T01:17:12.920Z,2.00
2022-09-20T01:19:27.344Z,1.63
2022-09-20T01:21:29.794Z,1.35
2022-09-20T01:24:00.581Z,1.98
2022-09-20T01:26:11.177Z,2.72
2022-09-20T01:28:13.369Z,1.80
2022-09-20T01:30:45.680Z,1.70
2022-09-20T01:33:17.062Z,2.00
2022-09-20T01:35:21.389Z,1.58
2022-09-20T01:37:42.443Z,1.70
2022-09-20T01:40:05.912Z,1.85
2022-09-20T01:42:11.608Z,1.73
2022-09-20T01:44:23.119Z,1.38
2022-09-20T01:46:35.819Z,1.60
2022-09-20T01:48:39.709Z,2.67
2022-09-20T01:51:09.874Z,1.95
2022-09-20T01:53:22.132Z,1.88
2022-09-20T01:55:44.616Z,2.20
2022-09-20T01:58:17.362Z,1.40
2022-09-20T02:00:46.012Z,1.42
2022-09-20T02:02:53.799Z,1.90
2022-09-20T02:04:58.679Z,1.30
2022-09-20T02:07:09.095Z,1.88
2022-09-20T02:09:32.327Z,2.17
2022-09-20T02:12:10.767Z,1.58
2022-09-20T02:14:24.167Z,1.58
2022-09-20T02:16:49.793Z,1.98
2022-09-20T02:19:19.664Z,1.48
2022-09-20T02:21:46.373Z,1.88
2022-09-20T02:24:00.953Z,2.58
2022-09-20T02:26:22.999Z,1.73
2022-09-20T02:28:39.550Z,2.00
2022-09-20T02:31:00.342Z,1.67
2022-09-20T02:33:30.003Z,1.73
2022-09-20T02:36:05.520Z,1.60
2022-09-20T02:38:28.495Z,1.40
2022-09-20T02:40:42.046Z,2.05
2022-09-20T02:43:24.230Z,1.80
2022-09-20T02:45:57.244Z,1.27
2022-09-20T02:48:03.888Z,2.60
2022-09-20T02:50:42.587Z,1.90
2022-09-20T02:53:20.820Z,2.00
2022-09-20T02:55:35.189Z,2.33
2022-09-20T02:57:51.268Z,3.30
2022-09-20T03:00:06.231Z,5.57
2022-09-20T03:02:16.861Z,6.15
2022-09-20T03:04:40.095Z,5.53
2022-09-20T03:07:02.291Z,5.75
2022-09-20T03:09:36.332Z,7.75
2022-09-20T03:11:41.047Z,8.20
2022-09-20T03:14:01.009Z,8.82
2022-09-20T03:16:35.150Z,9.10
2022-09-20T03:19:19.650Z,5.75
2022-09-20T03:21:44.180Z,4.13
2022-09-20T03:24:01.088Z,3.28
2022-09-20T03:26:30.391Z,3.45
2022-09-20T03:29:00.118Z,3.13
2022-09-20T03:31:12.381Z,2.30
2022-09-20T03:33:37.662Z,3.20
2022-09-20T03:35:59.539Z,2.50
2022-09-20T03:38:20.027Z,2.00
2022-09-20T03:40:27.802Z,2.22
2022-09-20T03:42:30.230Z,2.70
2022-09-20T03:44:47.252Z,2.60
2022-09-20T03:46:52.071Z,2.25
2022-09-20T03:49:05.827Z,2.63
2022-09-20T03:51:21.349Z,2.55
2022-09-20T03:53:46.762Z,2.08
2022-09-20T03:56:06.998Z,2.20
2022-09-20T03:58:28.739Z,2.13
2022-09-20T04:00:45.663Z,2.78
2022-09-20T04:03:12.085Z,1.75
2022-09-20T04:05:44.107Z,1.98
2022-09-20T04:08:21.864Z,2.17
2022-09-20T04:10:35.293Z,1.63
2022-09-20T04:12:55.396Z,2.45
2022-09-20T04:15:31.890Z,1.95
2022-09-20T04:17:33.470Z,2.65
2022-09-20T04:19:57.128Z,2.55
2022-09-20T04:22:00.637Z,2.08
2022-09-20T04:24:25.556Z,2.22
2022-09-20T04:26:30.889Z,2.35
2022-09-20T04:28:47.426Z,2.70
2022-09-20T04:30:52.003Z,2.38
2022-09-20T04:33:09.114Z,1.85
2022-09-20T04:35:32.007Z,2.40
2022-09-20T04:37:38.754Z,2.42
2022-09-20T04:39:43.138Z,2.42
2022-09-20T04:42:15.794Z,2.38
2022-09-20T04:44:39.068Z,2.38
2022-09-20T04:47:08.327Z,2.38
2022-09-20T04:49:20.311Z,2.67
2022-09-20T04:52:08.376Z,2.90
2022-09-20T04:54:21.804Z,3.72
2022-09-20T04:56:45.078Z,3.00
2022-09-20T04:59:05.965Z,2.72
2022-09-20T05:01:17.257Z,3.05
2022-09-20T05:03:52.442Z,2.65
2022-09-20T05:05:56.982Z,2.63
2022-09-20T05:08:10.485Z,2.85
2022-09-20T05:10:33.552Z,4.43
2022-09-20T05:13:16.713Z,2.60
2022-09-20T05:15:43.507Z,2.60
2022-09-20T05:18:03.594Z,2.70
2022-09-20T05:20:05.292Z,2.40
2022-09-20T05:22:19.383Z,2.67
2022-09-20T05:24:38.785Z,2.10
2022-09-20T05:26:52.599Z,3.88
2022-09-20T05:29:03.510Z,2.25
2022-09-20T05:31:13.984Z,2.42
2022-09-20T05:33:24.937Z,2.13
2022-09-20T05:35:57.598Z,2.20
2022-09-20T05:38:47.293Z,2.30
2022-09-20T05:41:08.311Z,2.85
2022-09-20T05:43:13.250Z,2.63
2022-09-20T05:45:26.641Z,1.73
2022-09-20T05:47:36.402Z,2.35
2022-09-20T05:49:59.805Z,2.63
2022-09-20T05:52:10.408Z,2.60
2022-09-20T05:54:24.982Z,3.20
2022-09-20T05:56:44.747Z,3.35
2022-09-20T05:58:55.869Z,2.60
2022-09-20T06:01:02.587Z,2.15
2022-09-20T06:03:26.192Z,2.40
2022-09-20T06:05:46.136Z,2.80
2022-09-20T06:08:24.949Z,3.13
2022-09-20T06:11:01.733Z,2.65
2022-09-20T06:13:09.382Z,3.33
2022-09-20T06:15:36.924Z,2.67
2022-09-20T06:17:57.243Z,2.92
2022-09-20T06:20:17.768Z,2.90
2022-09-20T06:22:28.946Z,2.92
2022-09-20T06:24:55.553Z,3.33
2022-09-20T06:27:00.010Z,2.55
2022-09-20T06:29:05.091Z,3.50
2022-09-20T06:31:09.224Z,2.78
2022-09-20T06:33:21.689Z,3.08
2022-09-20T06:35:25.460Z,3.45
2022-09-20T06:38:02.840Z,2.78
2022-09-20T06:40:41.877Z,3.22
2022-09-20T06:42:44.656Z,4.93
2022-09-20T06:44:47.217Z,4.53
2022-09-20T06:46:49.096Z,6.72
2022-09-20T06:48:51.341Z,6.03
2022-09-20T06:50:52.972Z,4.38
2022-09-20T06:52:55.742Z,4.43
2022-09-20T06:54:57.437Z,5.03
2022-09-20T06:57:02.999Z,5.25
2022-09-20T06:59:08.693Z,4.85
2022-09-20T07:01:10.445Z,4.75
2022-09-20T07:03:13.109Z,4.05
2022-09-20T07:05:16.391Z,4.38
2022-09-20T07:07:19.299Z,4.22
2022-09-20T07:09:21.156Z,5.07
2022-09-20T07:11:23.379Z,5.72
2022-09-20T07:13:25.341Z,5.75
2022-09-20T07:15:28.328Z,6.25
2022-09-20T07:17:29.956Z,6.60
2022-09-20T07:19:31.565Z,6.82
2022-09-20T07:21:33.307Z,6.57
2022-09-20T07:23:34.927Z,5.22
2022-09-20T07:25:36.937Z,5.10
2022-09-20T07:27:39.823Z,6.15
2022-09-20T07:29:41.564Z,4.68
2022-09-20T07:31:43.228Z,5.32
2022-09-20T07:33:45.014Z,4.75
2022-09-20T07:35:47.230Z,4.45
2022-09-20T07:37:49.013Z,4.50
2022-09-20T07:39:53.392Z,5.10
2022-09-20T07:41:55.589Z,4.40
2022-09-20T07:44:17.271Z,4.30
2022-09-20T07:46:22.278Z,4.03
2022-09-20T07:48:26.082Z,3.95
2022-09-20T07:50:27.688Z,4.43
2022-09-20T07:52:29.617Z,4.50
2022-09-20T07:54:31.421Z,3.70
2022-09-20T07:56:33.063Z,4.20
2022-09-20T07:58:35.820Z,3.70
2022-09-20T08:00:37.476Z,3.15
2022-09-20T08:02:39.547Z,3.63
2022-09-20T08:04:41.550Z,2.83
2022-09-20T08:06:45.006Z,2.83
2022-09-20T08:08:46.642Z,3.58
2022-09-20T08:10:48.934Z,3.33
2022-09-20T08:15:12.593Z,2.83
2022-09-20T08:17:14.232Z,2.92
2022-09-20T08:19:21.218Z,3.08
2022-09-20T08:21:24.398Z,2.80
2022-09-20T08:23:26.090Z,3.67
2022-09-20T08:25:27.695Z,3.60
2022-09-20T08:27:29.291Z,2.88
2022-09-20T08:29:31.390Z,2.05
2022-09-20T08:31:36.878Z,3.63
2022-09-20T08:33:39.010Z,3.08
2022-09-20T08:35:40.884Z,4.13
2022-09-20T08:37:45.618Z,3.33
2022-09-20T08:40:02.682Z,3.65
2022-09-20T08:42:40.355Z,3.35
2022-09-20T08:45:00.574Z,3.30
2022-09-20T08:47:12.074Z,3.05
2022-09-20T08:49:19.008Z,2.60
2022-09-20T08:51:23.218Z,3.20
2022-09-20T08:53:28.635Z,3.05
2022-09-20T08:55:39.708Z,2.35
2022-09-20T08:57:41.426Z,2.28
2022-09-20T08:59:43.478Z,2.50
2022-09-20T09:01:45.467Z,2.72
2022-09-20T09:03:47.641Z,2.45
2022-09-20T09:05:58.113Z,1.80
2022-09-20T09:08:05.433Z,1.65
2022-09-20T09:10:08.904Z,1.70
2022-09-20T09:12:28.056Z,2.42
2022-09-20T09:14:51.364Z,2.22
2022-09-20T09:16:54.783Z,2.25
2022-09-20T09:18:57.842Z,2.75
2022-09-20T09:21:00.758Z,1.83
2022-09-20T09:23:05.447Z,2.25
2022-09-20T09:25:10.142Z,1.98
2022-09-20T09:27:19.232Z,1.33
2022-09-20T09:29:23.434Z,1.30
2022-09-20T09:31:26.504Z,1.30
2022-09-20T09:33:30.148Z,1.40
2022-09-20T09:35:32.231Z,2.10
2022-09-20T09:37:34.384Z,1.50
2022-09-20T09:39:38.448Z,1.40
2022-09-20T09:41:40.748Z,1.42
2022-09-20T09:43:42.487Z,1.73
2022-09-20T09:45:44.246Z,1.60
2022-09-20T09:47:46.070Z,1.40
2022-09-20T09:50:03.653Z,1.70
2022-09-20T09:52:14.368Z,1.85
2022-09-20T09:54:19.830Z,1.55
2022-09-20T09:56:27.588Z,1.45
2022-09-20T09:58:55.707Z,1.90
2022-09-20T10:00:59.686Z,1.40
2022-09-20T10:03:32.395Z,1.65
2022-09-20T10:05:49.199Z,1.30
2022-09-20T10:08:24.027Z,1.50
2022-09-20T10:10:34.435Z,2.42
2022-09-20T10:12:46.855Z,1.30
2022-09-20T10:14:53.213Z,1.48
2022-09-20T10:17:01.910Z,1.10
2022-09-20T10:19:08.948Z,1.38
2022-09-20T10:21:11.339Z,1.02
2022-09-20T10:24:04.543Z,1.10
2022-09-20T10:26:21.007Z,1.15
2022-09-20T10:28:48.410Z,1.65
2022-09-20T10:31:29.255Z,1.08
2022-09-20T10:33:43.220Z,1.50
2022-09-20T10:36:00.282Z,1.88
2022-09-20T10:38:12.637Z,1.73
2022-09-20T10:41:09.809Z,1.38
2022-09-20T10:43:22.362Z,1.00
2022-09-20T10:46:08.353Z,1.02
2022-09-20T10:48:08.320Z,0.80
2022-09-20T10:50:29.836Z,0.70
2022-09-20T10:52:40.863Z,0.98
2022-09-20T10:54:48.576Z,1.00
2022-09-20T10:56:52.515Z,0.90
2022-09-20T10:59:43.489Z,1.15
2022-09-20T11:02:08.321Z,1.02
2022-09-20T11:04:19.128Z,0.80
2022-09-20T11:06:24.528Z,0.93
2022-09-20T11:08:33.850Z,1.42
2022-09-20T11:10:41.179Z,0.85
2022-09-20T11:13:01.405Z,1.90
2022-09-20T11:15:05.490Z,1.00
2022-09-20T11:17:20.530Z,1.00
2022-09-20T11:19:43.243Z,0.80
2022-09-20T11:21:48.815Z,0.98
2022-09-20T11:23:52.851Z,0.98
2022-09-20T11:26:05.505Z,0.80
2022-09-20T11:28:25.687Z,0.90
2022-09-20T11:30:29.568Z,1.23
2022-09-20T11:32:36.780Z,1.00
2022-09-20T11:34:50.890Z,0.82
2022-09-20T11:36:59.091Z,0.80
2022-09-20T11:39:15.292Z,1.05
2022-09-20T11:41:28.363Z,1.10
2022-09-20T11:43:31.168Z,1.30
2022-09-20T11:45:34.253Z,0.80
2022-09-20T11:47:54.619Z,0.80
2022-09-20T11:50:51.458Z,1.17
2022-09-20T11:53:14.148Z,1.10
2022-09-20T11:55:15.907Z,1.35
2022-09-20T11:57:17.481Z,1.17
2022-09-20T11:59:32.477Z,0.90
2022-09-20T12:01:39.478Z,0.93
2022-09-20T12:03:42.206Z,0.77
2022-09-20T12:05:44.151Z,1.05
2022-09-20T12:07:46.154Z,0.88
2022-09-20T12:09:59.157Z,0.85
2022-09-20T12:12:15.198Z,0.90
2022-09-20T12:14:28.429Z,0.90
2022-09-20T12:16:42.787Z,0.80
2022-09-20T12:18:56.394Z,0.75
2022-09-20T12:21:02.970Z,0.80
2022-09-20T12:23:39.299Z,1.08
2022-09-20T12:25:41.235Z,1.08
2022-09-20T12:27:43.021Z,0.82
2022-09-20T12:30:12.132Z,1.00
2022-09-20T12:32:33.541Z,1.05
2022-09-20T12:34:36.765Z,0.88
2022-09-20T12:36:43.290Z,0.82
2022-09-20T12:38:50.600Z,0.70
2022-09-20T12:41:06.472Z,1.00
2022-09-20T12:43:18.140Z,1.20
2022-09-20T12:45:23.241Z,1.00
2022-09-20T12:47:36.021Z,0.85
2022-09-20T12:50:07.902Z,0.55
2022-09-20T12:52:52.507Z,1.00
2022-09-20T12:54:55.646Z,1.73
2022-09-20T12:57:17.854Z,1.05
2022-09-20T12:59:24.853Z,1.40
2022-09-20T13:01:28.941Z,0.85
2022-09-20T13:03:36.657Z,1.30
2022-09-20T13:05:47.210Z,1.00
2022-09-20T13:07:56.581Z,1.35
2022-09-20T13:09:58.303Z,0.95
2022-09-20T13:12:01.599Z,0.70
2022-09-20T13:14:06.625Z,0.65
2022-09-20T13:16:28.897Z,0.70
2022-09-20T13:18:31.198Z,0.93
2022-09-20T13:20:35.018Z,0.80
2022-09-20T13:22:43.545Z,0.70
2022-09-20T13:24:48.469Z,0.90
2022-09-20T13:26:50.780Z,0.73
2022-09-20T13:28:55.013Z,0.88
2022-09-20T13:31:22.065Z,1.13
2022-09-20T13:33:25.330Z,0.75
2022-09-20T13:35:32.535Z,0.70
2022-09-20T13:37:54.732Z,0.80
2022-09-20T13:39:57.389Z,0.93
2022-09-20T13:42:02.373Z,0.68
2022-09-20T13:44:04.266Z,0.77
2022-09-20T13:46:29.616Z,0.70
2022-09-20T13:48:31.236Z,0.75
2022-09-20T13:50:35.165Z,0.63
2022-09-20T13:52:51.637Z,0.88
2022-09-20T13:54:55.178Z,0.60
2022-09-20T13:56:59.990Z,0.60
2022-09-20T13:59:05.212Z,0.68
2022-09-20T14:01:30.445Z,0.77
2022-09-20T14:03:33.877Z,0.68
2022-09-20T14:05:35.592Z,0.70
2022-09-20T14:07:37.210Z,0.88
2022-09-20T14:09:39.517Z,0.70
2022-09-20T14:11:41.302Z,0.70
2022-09-20T14:13:49.352Z,0.82
2022-09-20T14:15:51.373Z,0.90
2022-09-20T14:17:54.519Z,0.88
2022-09-20T14:19:57.563Z,0.43
2022-09-20T14:22:03.223Z,0.90
2022-09-20T14:24:26.075Z,0.90
2022-09-20T14:26:36.434Z,0.70
2022-09-20T14:28:38.061Z,0.65
2022-09-20T14:30:39.839Z,0.80
2022-09-20T14:32:52.653Z,0.90
2022-09-20T14:35:00.210Z,0.60
2022-09-20T14:37:10.046Z,0.70
2022-09-20T14:39:16.809Z,0.70
2022-09-20T14:41:33.329Z,1.30
2022-09-20T14:43:35.778Z,1.05
2022-09-20T14:45:43.254Z,0.90
2022-09-20T14:48:09.375Z,0.65
2022-09-20T14:50:29.255Z,1.20
2022-09-20T14:52:38.640Z,0.70
2022-09-20T14:54:41.324Z,0.90
2022-09-20T14:56:57.660Z,1.00
2022-09-20T14:59:17.430Z,0.85
2022-09-20T15:01:24.466Z,0.70
2022-09-20T15:03:34.707Z,0.60
2022-09-20T15:05:36.504Z,0.82
2022-09-20T15:07:38.095Z,0.93
2022-09-20T15:09:39.796Z,0.82
2022-09-20T15:11:41.457Z,1.00
2022-09-20T15:13:43.190Z,0.90
2022-09-20T15:15:46.837Z,0.80
2022-09-20T15:17:48.900Z,0.90
2022-09-20T15:19:50.525Z,1.00
2022-09-20T15:21:52.634Z,0.63
2022-09-20T15:23:54.276Z,0.68
2022-09-20T15:25:56.040Z,0.80
2022-09-20T15:27:59.695Z,0.98
2022-09-20T15:30:04.133Z,0.82
2022-09-20T15:32:06.372Z,0.70
2022-09-20T15:34:08.819Z,0.60
2022-09-20T15:36:10.565Z,0.70
2022-09-20T15:38:13.249Z,0.70
2022-09-20T15:40:15.455Z,0.95
2022-09-20T15:42:17.152Z,0.90
2022-09-20T15:44:18.812Z,0.88
2022-09-20T15:46:22.614Z,0.80
2022-09-20T15:48:25.769Z,0.77
2022-09-20T15:50:27.516Z,0.90
2022-09-20T15:52:34.622Z,0.80
2022-09-20T15:54:36.726Z,0.63
2022-09-20T15:56:40.538Z,0.80
2022-09-20T15:58:47.277Z,0.70
2022-09-20T16:00:49.963Z,0.93
2022-09-20T16:02:51.625Z,0.68
2022-09-20T16:04:56.729Z,0.80
2022-09-20T16:06:58.351Z,0.85
2022-09-20T16:09:00.146Z,0.70
2022-09-20T16:11:02.481Z,0.90
2022-09-20T16:13:04.141Z,0.80
2022-09-20T16:15:06.569Z,0.73
2022-09-20T16:17:08.288Z,0.63
2022-09-20T16:19:23.999Z,0.90
2022-09-20T16:21:25.954Z,1.20
2022-09-20T16:23:27.587Z,1.00
2022-09-20T16:25:29.279Z,0.85
2022-09-20T16:27:34.195Z,0.80
2022-09-20T16:29:36.152Z,0.88
2022-09-20T16:31:41.970Z,0.88
2022-09-20T16:33:44.195Z,0.85
2022-09-20T16:35:45.847Z,0.90
2022-09-20T16:37:48.258Z,0.98
2022-09-20T16:39:49.926Z,0.90
2022-09-20T16:41:53.167Z,1.33
2022-09-20T16:43:55.181Z,2.88
2022-09-20T16:46:00.754Z,3.03
2022-09-20T16:48:08.320Z,2.33
2022-09-20T16:50:10.652Z,5.88
2022-09-20T16:52:12.335Z,4.15
2022-09-20T16:54:15.366Z,4.05
2022-09-20T16:56:31.454Z,2.22
2022-09-20T16:58:35.476Z,1.50
2022-09-20T17:00:40.479Z,1.33
2022-09-20T17:02:47.127Z,1.27
2022-09-20T17:04:49.604Z,1.02
2022-09-20T17:06:52.052Z,1.08
2022-09-20T17:08:58.865Z,1.20
2022-09-20T17:11:03.911Z,1.58
2022-09-20T17:13:07.588Z,1.10
2022-09-20T17:15:13.086Z,1.40
2022-09-20T17:17:14.725Z,2.00
2022-09-20T17:19:18.919Z,1.30
2022-09-20T17:21:21.874Z,1.30
2022-09-20T17:23:23.858Z,1.25
2022-09-20T17:25:26.462Z,1.02
2022-09-20T17:27:28.179Z,1.80
2022-09-20T17:29:29.807Z,1.50
2022-09-20T17:31:36.956Z,1.50
2022-09-20T17:33:40.181Z,1.40
2022-09-20T17:35:51.130Z,1.30
2022-09-20T17:37:52.743Z,1.33
2022-09-20T17:39:54.704Z,1.10
2022-09-20T17:41:56.385Z,1.27
2022-09-20T17:43:59.491Z,1.00
2022-09-20T17:46:14.263Z,1.17
2022-09-20T17:48:15.862Z,1.60
2022-09-20T17:50:17.470Z,1.73
2022-09-20T17:52:19.105Z,1.80
2022-09-20T17:54:22.018Z,1.50
2022-09-20T17:56:28.521Z,1.85
2022-09-20T17:58:30.759Z,2.05
2022-09-20T18:00:32.622Z,2.78
2022-09-20T18:02:34.385Z,2.80
2022-09-20T18:04:36.115Z,2.35
2022-09-20T18:06:45.282Z,2.78
2022-09-20T18:08:49.576Z,3.22
2022-09-20T18:10:58.610Z,2.80
2022-09-20T18:13:01.149Z,2.40
2022-09-20T18:15:02.933Z,2.75
2022-09-20T18:17:05.443Z,3.42
2022-09-20T18:19:08.248Z,3.13
2022-09-20T18:21:18.513Z,2.80
2022-09-20T18:23:20.252Z,2.03
2022-09-20T18:25:24.087Z,2.80
2022-09-20T18:27:25.810Z,2.80
2022-09-20T18:29:28.713Z,2.28
2022-09-20T18:31:36.166Z,2.30
2022-09-20T18:33:38.122Z,2.17
2022-09-20T18:35:42.323Z,2.22
2022-09-20T18:37:44.181Z,1.70
2022-09-20T18:39:45.773Z,1.90
2022-09-20T18:41:50.652Z,1.75
2022-09-20T18:43:54.118Z,1.45
2022-09-20T18:45:57.752Z,2.40
2022-09-20T18:47:59.815Z,3.75
2022-09-20T18:50:01.772Z,2.72
2022-09-20T18:52:03.864Z,3.53
2022-09-20T18:54:05.972Z,13.18
2022-09-20T18:56:29.673Z,10.52
2022-09-20T18:58:31.625Z,5.07
2022-09-20T19:00:33.684Z,5.70
2022-09-20T19:02:55.623Z,4.38
2022-09-20T19:05:29.538Z,3.35
2022-09-20T19:07:58.096Z,2.90
2022-09-20T19:10:05.944Z,2.85
2022-09-20T19:12:18.363Z,3.00
2022-09-20T19:14:24.972Z,3.80
2022-09-20T19:16:46.488Z,3.45
2022-09-20T19:19:09.572Z,4.50
2022-09-20T19:21:22.469Z,3.25
2022-09-20T19:24:03.071Z,3.95
2022-09-20T19:26:19.023Z,2.55
2022-09-20T19:28:21.137Z,2.50
2022-09-20T19:30:23.079Z,1.95
2022-09-20T19:32:26.340Z,2.08
2022-09-20T19:34:32.457Z,1.75
2022-09-20T19:37:01.909Z,1.90
2022-09-20T19:39:09.518Z,2.90
2022-09-20T19:41:39.931Z,2.70
2022-09-20T19:44:05.693Z,2.47
2022-09-20T19:46:32.291Z,2.28
2022-09-20T19:48:42.954Z,2.25
2022-09-20T19:50:46.580Z,2.20
2022-09-20T19:52:48.804Z,1.90
2022-09-20T19:54:51.376Z,2.60
2022-09-20T19:56:58.780Z,2.47
2022-09-20T19:59:00.849Z,2.63
2022-09-20T20:01:02.965Z,2.45
2022-09-20T20:03:04.829Z,2.33
2022-09-20T20:05:07.119Z,2.75
2022-09-20T20:07:14.136Z,2.58
2022-09-20T20:09:15.807Z,2.65
2022-09-20T20:11:26.467Z,2.90
2022-09-20T20:13:52.844Z,2.40
2022-09-20T20:16:02.225Z,3.28
2022-09-20T20:18:28.088Z,2.58
2022-09-20T20:20:30.239Z,3.42
2022-09-20T20:22:38.184Z,3.50
2022-09-20T20:24:53.075Z,3.35
2022-09-20T20:26:54.714Z,3.03
2022-09-20T20:28:56.608Z,3.00
2022-09-20T20:31:00.849Z,3.90
2022-09-20T20:33:05.243Z,3.72
2022-09-20T20:35:07.645Z,3.78
2022-09-20T20:37:09.499Z,3.42
2022-09-20T20:39:11.828Z,4.43
2022-09-20T20:41:15.892Z,5.05
2022-09-20T20:43:18.393Z,7.05
2022-09-20T20:45:21.419Z,6.57
2022-09-20T20:47:23.208Z,7.10
2022-09-20T20:49:25.114Z,6.00
2022-09-20T20:51:27.459Z,5.53
2022-09-20T20:53:35.591Z,4.78
2022-09-20T20:55:37.482Z,4.25
2022-09-20T20:57:39.317Z,3.75
2022-09-20T20:59:41.275Z,4.93
2022-09-20T21:01:45.789Z,3.88
2022-09-20T21:03:49.730Z,4.45
2022-09-20T21:05:55.052Z,4.50
2022-09-20T21:07:58.118Z,5.10
2022-09-20T21:10:00.178Z,5.40
2022-09-20T21:12:03.214Z,4.93
2022-09-20T21:14:07.371Z,4.13
2022-09-20T21:16:11.631Z,4.07
2022-09-20T21:18:14.164Z,4.70
2022-09-20T21:20:16.293Z,4.70
2022-09-20T21:22:17.918Z,3.45
2022-09-20T21:24:19.751Z,3.85
2022-09-20T21:26:23.092Z,3.20
2022-09-20T21:28:24.756Z,3.67
2022-09-20T21:30:26.592Z,2.83
2022-09-20T21:32:28.276Z,4.10
2022-09-20T21:34:29.996Z,3.58
2022-09-20T21:36:32.769Z,3.90
2022-09-20T21:38:34.552Z,3.72
2022-09-20T21:40:39.594Z,3.40
2022-09-20T21:42:41.189Z,3.58
2022-09-20T21:44:43.190Z,3.15
2022-09-20T21:46:44.916Z,3.13
2022-09-20T21:48:47.735Z,2.90
2022-09-20T21:50:50.201Z,3.03
2022-09-20T21:52:51.865Z,2.78
2022-09-20T21:54:53.490Z,2.95
2022-09-20T21:56:59.424Z,3.10
2022-09-20T21:59:03.875Z,2.78
2022-09-20T22:01:14.311Z,3.15
2022-09-20T22:03:15.954Z,2.60
2022-09-20T22:05:17.651Z,3.53
2022-09-20T22:07:19.485Z,4.22
2022-09-20T22:09:21.249Z,3.90
2022-09-20T22:11:23.108Z,4.68
2022-09-20T22:13:24.817Z,4.53
2022-09-20T22:15:26.661Z,4.35
2022-09-20T22:17:29.565Z,3.47
2022-09-20T22:19:32.187Z,2.95
2022-09-20T22:21:36.964Z,3.78
2022-09-20T22:23:39.355Z,2.20
2022-09-20T22:25:41.267Z,3.67
2022-09-20T22:27:42.940Z,2.33
2022-09-20T22:29:44.637Z,2.70
2022-09-20T22:31:47.779Z,2.78
2022-09-20T22:33:51.631Z,2.47
2022-09-20T22:35:53.354Z,2.38
2022-09-20T22:37:56.430Z,2.00
2022-09-20T22:39:58.148Z,2.53
2022-09-20T22:41:59.901Z,2.00
2022-09-20T22:44:01.887Z,2.45
2022-09-20T22:46:04.712Z,2.58
2022-09-20T22:48:06.361Z,2.70
2022-09-20T22:50:08.448Z,2.20
2022-09-20T22:52:10.091Z,2.10
2022-09-20T22:54:12.573Z,2.58
2022-09-20T22:56:22.016Z,3.38
2022-09-20T22:58:23.706Z,2.67
2022-09-20T23:00:25.899Z,2.50
2022-09-20T23:02:27.612Z,2.45
2022-09-20T23:04:29.298Z,3.40
2022-09-20T23:06:39.330Z,2.70
2022-09-20T23:08:41.192Z,2.55
2022-09-20T23:10:43.096Z,2.80
2022-09-20T23:12:44.701Z,2.40
2022-09-20T23:14:46.404Z,2.83
2022-09-20T23:16:49.434Z,2.65
2022-09-20T23:18:53.996Z,2.20
2022-09-20T23:21:02.250Z,2.45
2022-09-20T23:23:03.854Z,2.53
2022-09-20T23:25:05.928Z,2.58
2022-09-20T23:27:07.659Z,2.33
2022-09-20T23:29:14.491Z,2.55
2022-09-20T23:31:17.162Z,2.08
2022-09-20T23:33:18.806Z,2.40
2022-09-20T23:35:20.400Z,2.78
2022-09-20T23:37:22.016Z,2.75
2022-09-20T23:39:23.714Z,2.72
2022-09-20T23:41:26.922Z,2.60
2022-09-20T23:43:28.528Z,2.35
2022-09-20T23:45:30.245Z,2.40
2022-09-20T23:47:31.880Z,2.60
2022-09-20T23:49:33.618Z,2.20
2022-09-20T23:51:35.640Z,2.22
2022-09-20T23:53:38.006Z,2.15
2022-09-20T23:55:39.625Z,2.45
2022-09-20T23:57:41.644Z,2.30
2022-09-20T23:59:43.303Z,2.95
